Etusivu
METAR-TAF:

METAR-TAF

Lentoasemat :

Sanderson Field Airport

Shelton, Washington, Yhdysvallat

Leveyspiiri: 47-14-17N, Pituuspiiri: 123-08-27W, korkeus merenpinnasta: 82 m

Tämänhetkinen sää

Tämä raportti tehtiin 12 minuuttia sitten, kello 16.20 UTC
tyyntä
Lämpötila 9°C
Kosteus 93%
Ilmanpaine 1015 hPa
Näkyvyys: 16.1 km
Hajanaisia pilviä 300 ft:n korkeudessa
Hajanaisia pilviä 1100 ft:n korkeudessa
Pilvistä 1700 ft:n korkeudessa

METAR: KSHN 181620Z AUTO 00000KT 10SM SCT003 SCT011 OVC017 09/08 A2997 RMK AO2 T00890083

Aika: 08:32 (16:32 UTC)


TAF: puuttuu

Säähavainnot ja -ennusteet yli 4000 lentoasemalta (METAR- ja TAF-raportit).

Käytössä olevat sääasemat on merkitty karttaan keltaisilla ja punaisilla pisteillä.

Aseta hiiri pisteen päälle nähdäksesi sääaseman nimen.

Klikkaa sitten nähdäksesi säähavainnot ja -ennusteet.

Kartan vaihtaminen: klikkaa mustalla rastilla varustettuja vihreitä pisteitä, niin voit zoomata sisään; viivalla varustettua vihreää pistettä, niin voit zoomata ulos tai vihreitä nuolia, niin pääset viereisille kartoille.


METAR-TAF: